sensor_id;sensor_type;location;lat;lon;timestamp;P1;durP1;ratioP1;P2;durP2;ratioP2
45944;SDS011;31655;48.972;10.686;2022-07-21T00:00:42;8.18;;;6.35;;
45944;SDS011;31655;48.972;10.686;2022-07-21T00:03:07;8.38;;;6.20;;
45944;SDS011;31655;48.972;10.686;2022-07-21T00:05:33;8.15;;;6.78;;
45944;SDS011;31655;48.972;10.686;2022-07-21T00:07:59;9.05;;;5.70;;
45944;SDS011;31655;48.972;10.686;2022-07-21T00:10:25;7.72;;;5.55;;
45944;SDS011;31655;48.972;10.686;2022-07-21T00:12:51;9.30;;;6.65;;
45944;SDS011;31655;48.972;10.686;2022-07-21T00:15:19;7.63;;;5.35;;
45944;SDS011;31655;48.972;10.686;2022-07-21T00:17:46;9.77;;;5.30;;
45944;SDS011;31655;48.972;10.686;2022-07-21T00:20:12;10.20;;;4.80;;
45944;SDS011;31655;48.972;10.686;2022-07-21T00:22:39;7.55;;;5.15;;
45944;SDS011;31655;48.972;10.686;2022-07-21T00:25:05;8.90;;;5.70;;
45944;SDS011;31655;48.972;10.686;2022-07-21T00:27:31;5.22;;;4.32;;
45944;SDS011;31655;48.972;10.686;2022-07-21T00:29:57;7.38;;;5.05;;
45944;SDS011;31655;48.972;10.686;2022-07-21T00:32:23;6.57;;;4.72;;
45944;SDS011;31655;48.972;10.686;2022-07-21T00:34:48;9.98;;;5.15;;
45944;SDS011;31655;48.972;10.686;2022-07-21T00:37:14;8.93;;;5.28;;
45944;SDS011;31655;48.972;10.686;2022-07-21T00:39:39;7.85;;;4.68;;
45944;SDS011;31655;48.972;10.686;2022-07-21T00:42:05;9.25;;;5.80;;
45944;SDS011;31655;48.972;10.686;2022-07-21T00:44:30;8.98;;;6.18;;
45944;SDS011;31655;48.972;10.686;2022-07-21T00:46:56;7.40;;;5.97;;
45944;SDS011;31655;48.972;10.686;2022-07-21T00:49:22;7.20;;;5.88;;
45944;SDS011;31655;48.972;10.686;2022-07-21T00:51:50;8.70;;;6.40;;
45944;SDS011;31655;48.972;10.686;2022-07-21T00:54:16;8.88;;;5.68;;
45944;SDS011;31655;48.972;10.686;2022-07-21T00:56:44;7.88;;;5.80;;
45944;SDS011;31655;48.972;10.686;2022-07-21T00:59:10;7.53;;;5.80;;
45944;SDS011;31655;48.972;10.686;2022-07-21T01:01:37;8.60;;;5.72;;
45944;SDS011;31655;48.972;10.686;2022-07-21T01:04:03;8.48;;;6.40;;
45944;SDS011;31655;48.972;10.686;2022-07-21T01:06:28;11.60;;;6.03;;
45944;SDS011;31655;48.972;10.686;2022-07-21T01:08:54;7.63;;;4.88;;
45944;SDS011;31655;48.972;10.686;2022-07-21T01:11:20;9.15;;;5.80;;
45944;SDS011;31655;48.972;10.686;2022-07-21T01:13:48;8.80;;;5.88;;
45944;SDS011;31655;48.972;10.686;2022-07-21T01:16:14;9.65;;;5.70;;
45944;SDS011;31655;48.972;10.686;2022-07-21T01:18:39;7.90;;;6.38;;
45944;SDS011;31655;48.972;10.686;2022-07-21T01:24:05;7.55;;;5.45;;
45944;SDS011;31655;48.972;10.686;2022-07-21T01:26:38;7.45;;;5.78;;
45944;SDS011;31655;48.972;10.686;2022-07-21T01:29:08;7.45;;;5.57;;
45944;SDS011;31655;48.972;10.686;2022-07-21T01:31:35;7.43;;;5.78;;
45944;SDS011;31655;48.972;10.686;2022-07-21T01:34:01;9.40;;;6.97;;
45944;SDS011;31655;48.972;10.686;2022-07-21T01:36:28;10.85;;;7.30;;
45944;SDS011;31655;48.972;10.686;2022-07-21T01:38:53;7.15;;;6.45;;
45944;SDS011;31655;48.972;10.686;2022-07-21T01:41:37;11.02;;;8.25;;
45944;SDS011;31655;48.972;10.686;2022-07-21T01:44:04;10.88;;;7.97;;
45944;SDS011;31655;48.972;10.686;2022-07-21T01:46:32;11.82;;;8.50;;
45944;SDS011;31655;48.972;10.686;2022-07-21T01:49:00;11.20;;;9.00;;
45944;SDS011;31655;48.972;10.686;2022-07-21T01:51:26;11.48;;;8.68;;
45944;SDS011;31655;48.972;10.686;2022-07-21T01:53:52;16.88;;;9.85;;
45944;SDS011;31655;48.972;10.686;2022-07-21T01:56:19;15.65;;;9.82;;
45944;SDS011;31655;48.972;10.686;2022-07-21T01:58:46;13.52;;;9.15;;
45944;SDS011;31655;48.972;10.686;2022-07-21T02:01:12;14.48;;;9.95;;
45944;SDS011;31655;48.972;10.686;2022-07-21T02:03:37;15.73;;;9.80;;
45944;SDS011;31655;48.972;10.686;2022-07-21T02:06:04;12.93;;;10.25;;
45944;SDS011;31655;48.972;10.686;2022-07-21T02:08:31;13.18;;;10.82;;
45944;SDS011;31655;48.972;10.686;2022-07-21T02:10:57;15.50;;;11.95;;
45944;SDS011;31655;48.972;10.686;2022-07-21T02:13:23;13.65;;;10.98;;
45944;SDS011;31655;48.972;10.686;2022-07-21T02:15:49;16.25;;;11.82;;
45944;SDS011;31655;48.972;10.686;2022-07-21T02:18:14;18.77;;;13.10;;
45944;SDS011;31655;48.972;10.686;2022-07-21T02:20:40;17.95;;;12.93;;
45944;SDS011;31655;48.972;10.686;2022-07-21T02:23:06;21.08;;;14.63;;
45944;SDS011;31655;48.972;10.686;2022-07-21T02:25:32;20.00;;;15.63;;
45944;SDS011;31655;48.972;10.686;2022-07-21T02:27:58;26.42;;;16.90;;
45944;SDS011;31655;48.972;10.686;2022-07-21T02:30:23;25.17;;;18.50;;
45944;SDS011;31655;48.972;10.686;2022-07-21T02:32:49;23.55;;;16.98;;
45944;SDS011;31655;48.972;10.686;2022-07-21T02:35:14;21.40;;;16.08;;
45944;SDS011;31655;48.972;10.686;2022-07-21T02:37:40;27.20;;;17.73;;
45944;SDS011;31655;48.972;10.686;2022-07-21T02:40:06;24.88;;;16.80;;
45944;SDS011;31655;48.972;10.686;2022-07-21T02:42:32;22.88;;;16.30;;
45944;SDS011;31655;48.972;10.686;2022-07-21T02:44:57;19.75;;;15.52;;
45944;SDS011;31655;48.972;10.686;2022-07-21T02:47:23;22.60;;;16.52;;
45944;SDS011;31655;48.972;10.686;2022-07-21T02:49:48;24.42;;;17.00;;
45944;SDS011;31655;48.972;10.686;2022-07-21T02:52:14;24.00;;;17.25;;
45944;SDS011;31655;48.972;10.686;2022-07-21T02:54:40;24.08;;;17.75;;
45944;SDS011;31655;48.972;10.686;2022-07-21T02:57:05;26.08;;;18.38;;
45944;SDS011;31655;48.972;10.686;2022-07-21T02:59:31;25.65;;;19.77;;
45944;SDS011;31655;48.972;10.686;2022-07-21T03:01:57;30.48;;;19.95;;
45944;SDS011;31655;48.972;10.686;2022-07-21T03:04:22;21.95;;;17.95;;
45944;SDS011;31655;48.972;10.686;2022-07-21T03:06:48;25.92;;;18.17;;
45944;SDS011;31655;48.972;10.686;2022-07-21T03:09:13;24.67;;;17.83;;
45944;SDS011;31655;48.972;10.686;2022-07-21T03:11:39;28.55;;;19.85;;
45944;SDS011;31655;48.972;10.686;2022-07-21T03:14:04;24.33;;;19.67;;
45944;SDS011;31655;48.972;10.686;2022-07-21T03:16:30;27.42;;;18.75;;
45944;SDS011;31655;48.972;10.686;2022-07-21T03:18:56;28.27;;;20.63;;
45944;SDS011;31655;48.972;10.686;2022-07-21T03:21:22;30.00;;;20.95;;
45944;SDS011;31655;48.972;10.686;2022-07-21T03:23:48;29.50;;;21.08;;
45944;SDS011;31655;48.972;10.686;2022-07-21T03:26:14;29.10;;;22.27;;
45944;SDS011;31655;48.972;10.686;2022-07-21T03:28:41;30.40;;;22.30;;
45944;SDS011;31655;48.972;10.686;2022-07-21T03:31:07;29.80;;;22.48;;
45944;SDS011;31655;48.972;10.686;2022-07-21T03:33:33;32.08;;;24.02;;
45944;SDS011;31655;48.972;10.686;2022-07-21T03:35:59;33.38;;;23.35;;
45944;SDS011;31655;48.972;10.686;2022-07-21T03:38:25;27.02;;;21.85;;
45944;SDS011;31655;48.972;10.686;2022-07-21T03:40:51;29.25;;;23.58;;
45944;SDS011;31655;48.972;10.686;2022-07-21T03:43:16;32.17;;;22.90;;
45944;SDS011;31655;48.972;10.686;2022-07-21T03:45:42;27.52;;;20.80;;
45944;SDS011;31655;48.972;10.686;2022-07-21T03:48:08;31.30;;;23.35;;
45944;SDS011;31655;48.972;10.686;2022-07-21T03:50:35;26.73;;;20.85;;
45944;SDS011;31655;48.972;10.686;2022-07-21T03:53:07;29.95;;;22.67;;
45944;SDS011;31655;48.972;10.686;2022-07-21T03:55:33;30.85;;;24.27;;
45944;SDS011;31655;48.972;10.686;2022-07-21T03:58:00;27.80;;;22.20;;
45944;SDS011;31655;48.972;10.686;2022-07-21T04:02:54;31.35;;;23.00;;
45944;SDS011;31655;48.972;10.686;2022-07-21T04:05:21;28.73;;;23.02;;
45944;SDS011;31655;48.972;10.686;2022-07-21T04:07:48;33.33;;;24.60;;
45944;SDS011;31655;48.972;10.686;2022-07-21T04:10:16;31.95;;;23.45;;
45944;SDS011;31655;48.972;10.686;2022-07-21T04:12:42;36.72;;;26.35;;
45944;SDS011;31655;48.972;10.686;2022-07-21T04:15:09;30.58;;;22.80;;
45944;SDS011;31655;48.972;10.686;2022-07-21T04:17:35;27.75;;;21.92;;
45944;SDS011;31655;48.972;10.686;2022-07-21T04:20:02;32.70;;;24.48;;
45944;SDS011;31655;48.972;10.686;2022-07-21T04:22:29;31.30;;;25.13;;
45944;SDS011;31655;48.972;10.686;2022-07-21T04:24:55;33.30;;;24.63;;
45944;SDS011;31655;48.972;10.686;2022-07-21T04:27:20;36.08;;;26.15;;
45944;SDS011;31655;48.972;10.686;2022-07-21T04:29:46;32.47;;;26.00;;
45944;SDS011;31655;48.972;10.686;2022-07-21T04:32:12;36.00;;;27.40;;
45944;SDS011;31655;48.972;10.686;2022-07-21T04:34:38;33.65;;;25.23;;
45944;SDS011;31655;48.972;10.686;2022-07-21T04:37:03;37.22;;;27.92;;
45944;SDS011;31655;48.972;10.686;2022-07-21T04:39:29;32.80;;;25.20;;
45944;SDS011;31655;48.972;10.686;2022-07-21T04:41:54;33.78;;;26.13;;
45944;SDS011;31655;48.972;10.686;2022-07-21T04:44:20;32.53;;;24.42;;
45944;SDS011;31655;48.972;10.686;2022-07-21T04:46:46;33.47;;;26.67;;
45944;SDS011;31655;48.972;10.686;2022-07-21T04:49:11;30.65;;;25.60;;
45944;SDS011;31655;48.972;10.686;2022-07-21T04:51:37;37.30;;;28.38;;
45944;SDS011;31655;48.972;10.686;2022-07-21T04:54:02;32.65;;;25.13;;
45944;SDS011;31655;48.972;10.686;2022-07-21T04:56:28;35.25;;;28.48;;
45944;SDS011;31655;48.972;10.686;2022-07-21T04:58:53;39.92;;;27.85;;
45944;SDS011;31655;48.972;10.686;2022-07-21T05:01:19;35.72;;;26.63;;
45944;SDS011;31655;48.972;10.686;2022-07-21T05:03:45;35.42;;;27.25;;
45944;SDS011;31655;48.972;10.686;2022-07-21T05:06:11;33.33;;;24.13;;
45944;SDS011;31655;48.972;10.686;2022-07-21T05:08:37;31.55;;;24.75;;
45944;SDS011;31655;48.972;10.686;2022-07-21T05:11:02;31.95;;;23.83;;
45944;SDS011;31655;48.972;10.686;2022-07-21T05:13:28;31.83;;;25.88;;
45944;SDS011;31655;48.972;10.686;2022-07-21T05:15:54;30.75;;;23.15;;
45944;SDS011;31655;48.972;10.686;2022-07-21T05:18:19;28.98;;;23.13;;
45944;SDS011;31655;48.972;10.686;2022-07-21T05:20:45;29.67;;;23.13;;
45944;SDS011;31655;48.972;10.686;2022-07-21T05:23:10;26.90;;;21.40;;
45944;SDS011;31655;48.972;10.686;2022-07-21T05:25:36;29.90;;;21.98;;
45944;SDS011;31655;48.972;10.686;2022-07-21T05:28:02;26.15;;;20.10;;
45944;SDS011;31655;48.972;10.686;2022-07-21T05:30:30;25.08;;;19.88;;
45944;SDS011;31655;48.972;10.686;2022-07-21T05:32:55;27.17;;;21.58;;
45944;SDS011;31655;48.972;10.686;2022-07-21T05:35:21;24.02;;;19.42;;
45944;SDS011;31655;48.972;10.686;2022-07-21T05:37:46;29.45;;;21.17;;
45944;SDS011;31655;48.972;10.686;2022-07-21T05:40:12;26.50;;;19.58;;
45944;SDS011;31655;48.972;10.686;2022-07-21T05:42:38;32.42;;;20.88;;
45944;SDS011;31655;48.972;10.686;2022-07-21T05:45:05;24.20;;;19.42;;
45944;SDS011;31655;48.972;10.686;2022-07-21T05:47:31;26.15;;;19.48;;
45944;SDS011;31655;48.972;10.686;2022-07-21T05:49:56;28.50;;;20.42;;
45944;SDS011;31655;48.972;10.686;2022-07-21T05:52:22;28.05;;;21.70;;
45944;SDS011;31655;48.972;10.686;2022-07-21T05:54:48;24.98;;;19.85;;
45944;SDS011;31655;48.972;10.686;2022-07-21T05:57:14;26.33;;;18.77;;
45944;SDS011;31655;48.972;10.686;2022-07-21T05:59:39;25.08;;;18.60;;
45944;SDS011;31655;48.972;10.686;2022-07-21T06:02:05;26.15;;;19.42;;
45944;SDS011;31655;48.972;10.686;2022-07-21T06:04:31;23.00;;;19.73;;
45944;SDS011;31655;48.972;10.686;2022-07-21T06:06:57;25.50;;;19.42;;
45944;SDS011;31655;48.972;10.686;2022-07-21T06:09:22;22.23;;;18.73;;
45944;SDS011;31655;48.972;10.686;2022-07-21T06:11:48;22.30;;;19.17;;
45944;SDS011;31655;48.972;10.686;2022-07-21T06:14:13;25.67;;;19.73;;
45944;SDS011;31655;48.972;10.686;2022-07-21T06:16:39;25.65;;;19.40;;
45944;SDS011;31655;48.972;10.686;2022-07-21T06:19:05;25.25;;;20.48;;
45944;SDS011;31655;48.972;10.686;2022-07-21T06:21:34;22.92;;;17.95;;
45944;SDS011;31655;48.972;10.686;2022-07-21T06:23:59;26.45;;;17.88;;
45944;SDS011;31655;48.972;10.686;2022-07-21T06:26:25;19.70;;;17.20;;
45944;SDS011;31655;48.972;10.686;2022-07-21T06:28:51;17.92;;;15.35;;
45944;SDS011;31655;48.972;10.686;2022-07-21T06:31:16;24.50;;;16.80;;
45944;SDS011;31655;48.972;10.686;2022-07-21T06:33:42;18.17;;;15.52;;
45944;SDS011;31655;48.972;10.686;2022-07-21T06:36:08;20.10;;;15.90;;
45944;SDS011;31655;48.972;10.686;2022-07-21T06:38:34;18.90;;;16.88;;
45944;SDS011;31655;48.972;10.686;2022-07-21T06:40:59;21.77;;;16.83;;
45944;SDS011;31655;48.972;10.686;2022-07-21T06:43:25;22.23;;;16.90;;
45944;SDS011;31655;48.972;10.686;2022-07-21T06:45:51;24.58;;;17.65;;
45944;SDS011;31655;48.972;10.686;2022-07-21T06:48:16;21.48;;;16.67;;
45944;SDS011;31655;48.972;10.686;2022-07-21T06:50:42;21.30;;;16.75;;
45944;SDS011;31655;48.972;10.686;2022-07-21T06:53:08;21.88;;;16.58;;
45944;SDS011;31655;48.972;10.686;2022-07-21T06:55:34;20.67;;;15.80;;
45944;SDS011;31655;48.972;10.686;2022-07-21T06:58:16;20.45;;;16.17;;
45944;SDS011;31655;48.972;10.686;2022-07-21T07:00:44;19.50;;;16.00;;
45944;SDS011;31655;48.972;10.686;2022-07-21T07:03:10;21.60;;;17.73;;
45944;SDS011;31655;48.972;10.686;2022-07-21T07:05:37;19.13;;;15.30;;
45944;SDS011;31655;48.972;10.686;2022-07-21T07:08:03;17.77;;;14.88;;
45944;SDS011;31655;48.972;10.686;2022-07-21T07:10:29;17.23;;;13.95;;
45944;SDS011;31655;48.972;10.686;2022-07-21T07:12:55;18.23;;;14.00;;
45944;SDS011;31655;48.972;10.686;2022-07-21T07:15:21;17.15;;;14.05;;
45944;SDS011;31655;48.972;10.686;2022-07-21T07:17:47;18.48;;;14.60;;
45944;SDS011;31655;48.972;10.686;2022-07-21T07:20:13;15.20;;;13.55;;
45944;SDS011;31655;48.972;10.686;2022-07-21T07:22:38;19.90;;;15.18;;
45944;SDS011;31655;48.972;10.686;2022-07-21T07:25:04;23.05;;;16.05;;
45944;SDS011;31655;48.972;10.686;2022-07-21T07:27:30;18.10;;;14.55;;
45944;SDS011;31655;48.972;10.686;2022-07-21T07:29:56;18.80;;;15.95;;
45944;SDS011;31655;48.972;10.686;2022-07-21T07:32:22;20.63;;;15.75;;
45944;SDS011;31655;48.972;10.686;2022-07-21T07:34:47;17.25;;;15.35;;
45944;SDS011;31655;48.972;10.686;2022-07-21T07:37:13;18.38;;;15.23;;
45944;SDS011;31655;48.972;10.686;2022-07-21T07:39:38;19.45;;;15.25;;
45944;SDS011;31655;48.972;10.686;2022-07-21T07:42:05;17.63;;;13.85;;
45944;SDS011;31655;48.972;10.686;2022-07-21T07:44:31;17.52;;;14.15;;
45944;SDS011;31655;48.972;10.686;2022-07-21T07:46:58;14.85;;;12.82;;
45944;SDS011;31655;48.972;10.686;2022-07-21T07:49:23;15.05;;;12.90;;
45944;SDS011;31655;48.972;10.686;2022-07-21T07:51:49;15.25;;;12.13;;
45944;SDS011;31655;48.972;10.686;2022-07-21T07:54:15;14.85;;;13.35;;
45944;SDS011;31655;48.972;10.686;2022-07-21T07:56:41;16.35;;;13.43;;
45944;SDS011;31655;48.972;10.686;2022-07-21T07:59:07;14.98;;;12.32;;
45944;SDS011;31655;48.972;10.686;2022-07-21T08:01:33;17.67;;;13.27;;
45944;SDS011;31655;48.972;10.686;2022-07-21T08:03:58;17.98;;;12.77;;
45944;SDS011;31655;48.972;10.686;2022-07-21T08:06:24;15.88;;;13.60;;
45944;SDS011;31655;48.972;10.686;2022-07-21T08:08:49;15.90;;;12.98;;
45944;SDS011;31655;48.972;10.686;2022-07-21T08:11:15;16.50;;;13.45;;
45944;SDS011;31655;48.972;10.686;2022-07-21T08:13:41;14.45;;;12.13;;
45944;SDS011;31655;48.972;10.686;2022-07-21T08:16:06;14.98;;;12.52;;
45944;SDS011;31655;48.972;10.686;2022-07-21T08:18:32;17.73;;;11.35;;
45944;SDS011;31655;48.972;10.686;2022-07-21T08:20:58;16.67;;;12.60;;
45944;SDS011;31655;48.972;10.686;2022-07-21T08:23:24;13.50;;;11.48;;
45944;SDS011;31655;48.972;10.686;2022-07-21T08:25:49;13.30;;;11.75;;
45944;SDS011;31655;48.972;10.686;2022-07-21T08:28:15;13.10;;;11.70;;
45944;SDS011;31655;48.972;10.686;2022-07-21T08:30:41;10.63;;;9.50;;
45944;SDS011;31655;48.972;10.686;2022-07-21T08:33:07;17.55;;;11.70;;
45944;SDS011;31655;48.972;10.686;2022-07-21T08:35:32;11.40;;;10.25;;
45944;SDS011;31655;48.972;10.686;2022-07-21T08:38:06;12.50;;;11.30;;
45944;SDS011;31655;48.972;10.686;2022-07-21T08:40:37;14.18;;;11.65;;
45944;SDS011;31655;48.972;10.686;2022-07-21T08:43:05;12.15;;;10.80;;
45944;SDS011;31655;48.972;10.686;2022-07-21T08:45:33;13.77;;;11.07;;
45944;SDS011;31655;48.972;10.686;2022-07-21T08:48:01;13.02;;;11.15;;
45944;SDS011;31655;48.972;10.686;2022-07-21T08:50:28;13.82;;;10.63;;
45944;SDS011;31655;48.972;10.686;2022-07-21T08:52:56;12.63;;;10.45;;
45944;SDS011;31655;48.972;10.686;2022-07-21T08:55:22;12.13;;;10.05;;
45944;SDS011;31655;48.972;10.686;2022-07-21T08:57:48;11.90;;;10.02;;
45944;SDS011;31655;48.972;10.686;2022-07-21T09:00:13;11.68;;;10.48;;
45944;SDS011;31655;48.972;10.686;2022-07-21T09:02:39;11.52;;;9.77;;
45944;SDS011;31655;48.972;10.686;2022-07-21T09:05:06;12.52;;;9.55;;
45944;SDS011;31655;48.972;10.686;2022-07-21T09:10:27;13.73;;;9.73;;
45944;SDS011;31655;48.972;10.686;2022-07-21T09:12:55;9.98;;;8.55;;
45944;SDS011;31655;48.972;10.686;2022-07-21T09:15:24;8.50;;;7.72;;
45944;SDS011;31655;48.972;10.686;2022-07-21T09:18:10;9.38;;;8.48;;
45944;SDS011;31655;48.972;10.686;2022-07-21T09:20:39;9.73;;;8.73;;
45944;SDS011;31655;48.972;10.686;2022-07-21T09:23:12;8.68;;;7.82;;
45944;SDS011;31655;48.972;10.686;2022-07-21T09:25:41;11.30;;;8.23;;
45944;SDS011;31655;48.972;10.686;2022-07-21T09:28:12;10.23;;;9.00;;
45944;SDS011;31655;48.972;10.686;2022-07-21T09:31:02;9.88;;;8.57;;
45944;SDS011;31655;48.972;10.686;2022-07-21T09:33:35;10.18;;;8.80;;
45944;SDS011;31655;48.972;10.686;2022-07-21T09:36:05;10.10;;;7.82;;
45944;SDS011;31655;48.972;10.686;2022-07-21T09:38:32;9.75;;;8.63;;
45944;SDS011;31655;48.972;10.686;2022-07-21T09:41:03;10.15;;;8.85;;
45944;SDS011;31655;48.972;10.686;2022-07-21T09:43:38;9.35;;;8.15;;
45944;SDS011;31655;48.972;10.686;2022-07-21T09:46:29;8.90;;;7.82;;
45944;SDS011;31655;48.972;10.686;2022-07-21T09:48:59;8.88;;;7.80;;
45944;SDS011;31655;48.972;10.686;2022-07-21T09:51:28;12.38;;;9.10;;
45944;SDS011;31655;48.972;10.686;2022-07-21T09:53:57;11.23;;;10.20;;
45944;SDS011;31655;48.972;10.686;2022-07-21T09:56:31;8.63;;;6.78;;
45944;SDS011;31655;48.972;10.686;2022-07-21T09:59:02;11.00;;;7.80;;
45944;SDS011;31655;48.972;10.686;2022-07-21T10:01:29;10.48;;;8.65;;
45944;SDS011;31655;48.972;10.686;2022-07-21T10:03:56;10.48;;;7.75;;
45944;SDS011;31655;48.972;10.686;2022-07-21T10:06:30;9.43;;;8.43;;
45944;SDS011;31655;48.972;10.686;2022-07-21T10:11:25;8.30;;;7.38;;
45944;SDS011;31655;48.972;10.686;2022-07-21T10:13:51;7.30;;;6.50;;
45944;SDS011;31655;48.972;10.686;2022-07-21T10:16:16;7.75;;;6.30;;
45944;SDS011;31655;48.972;10.686;2022-07-21T10:18:45;8.70;;;7.00;;
45944;SDS011;31655;48.972;10.686;2022-07-21T10:24:14;7.78;;;7.00;;
45944;SDS011;31655;48.972;10.686;2022-07-21T10:32:13;9.68;;;6.20;;
45944;SDS011;31655;48.972;10.686;2022-07-21T10:34:40;6.70;;;5.97;;
45944;SDS011;31655;48.972;10.686;2022-07-21T10:37:08;7.47;;;6.10;;
45944;SDS011;31655;48.972;10.686;2022-07-21T10:39:34;7.72;;;5.82;;
45944;SDS011;31655;48.972;10.686;2022-07-21T10:42:00;6.95;;;5.65;;
45944;SDS011;31655;48.972;10.686;2022-07-21T10:44:41;6.55;;;5.75;;
45944;SDS011;31655;48.972;10.686;2022-07-21T10:49:42;6.90;;;5.78;;
45944;SDS011;31655;48.972;10.686;2022-07-21T10:57:39;5.22;;;4.65;;
45944;SDS011;31655;48.972;10.686;2022-07-21T11:00:15;5.25;;;4.75;;
45944;SDS011;31655;48.972;10.686;2022-07-21T11:02:45;5.50;;;4.03;;
45944;SDS011;31655;48.972;10.686;2022-07-21T11:05:12;4.97;;;4.47;;
45944;SDS011;31655;48.972;10.686;2022-07-21T11:10:40;8.20;;;5.00;;
45944;SDS011;31655;48.972;10.686;2022-07-21T11:13:11;4.45;;;4.03;;
45944;SDS011;31655;48.972;10.686;2022-07-21T11:15:54;5.93;;;4.82;;
45944;SDS011;31655;48.972;10.686;2022-07-21T11:18:21;6.93;;;4.53;;
45944;SDS011;31655;48.972;10.686;2022-07-21T11:21:01;6.40;;;4.60;;
45944;SDS011;31655;48.972;10.686;2022-07-21T11:26:10;5.53;;;4.38;;
45944;SDS011;31655;48.972;10.686;2022-07-21T11:28:36;5.88;;;4.70;;
45944;SDS011;31655;48.972;10.686;2022-07-21T11:33:40;7.68;;;5.13;;
45944;SDS011;31655;48.972;10.686;2022-07-21T11:36:08;6.65;;;4.90;;
45944;SDS011;31655;48.972;10.686;2022-07-21T11:38:34;6.50;;;4.07;;
45944;SDS011;31655;48.972;10.686;2022-07-21T11:41:16;7.13;;;4.65;;
45944;SDS011;31655;48.972;10.686;2022-07-21T11:43:43;6.50;;;5.22;;
45944;SDS011;31655;48.972;10.686;2022-07-21T11:46:10;4.88;;;4.45;;
45944;SDS011;31655;48.972;10.686;2022-07-21T11:48:36;6.63;;;4.78;;
45944;SDS011;31655;48.972;10.686;2022-07-21T11:51:02;6.95;;;5.07;;
45944;SDS011;31655;48.972;10.686;2022-07-21T11:53:28;5.03;;;4.38;;
45944;SDS011;31655;48.972;10.686;2022-07-21T11:55:55;5.13;;;4.63;;
45944;SDS011;31655;48.972;10.686;2022-07-21T11:58:20;6.18;;;4.55;;
45944;SDS011;31655;48.972;10.686;2022-07-21T12:00:46;5.70;;;4.85;;
45944;SDS011;31655;48.972;10.686;2022-07-21T12:03:12;6.03;;;5.20;;
45944;SDS011;31655;48.972;10.686;2022-07-21T12:05:39;5.85;;;4.93;;
45944;SDS011;31655;48.972;10.686;2022-07-21T12:08:05;8.85;;;5.28;;
45944;SDS011;31655;48.972;10.686;2022-07-21T12:10:31;6.57;;;5.45;;
45944;SDS011;31655;48.972;10.686;2022-07-21T12:13:01;6.97;;;5.32;;
45944;SDS011;31655;48.972;10.686;2022-07-21T12:15:30;6.18;;;5.43;;
45944;SDS011;31655;48.972;10.686;2022-07-21T12:18:00;6.10;;;5.55;;
45944;SDS011;31655;48.972;10.686;2022-07-21T12:20:28;7.40;;;6.38;;
45944;SDS011;31655;48.972;10.686;2022-07-21T12:22:56;6.95;;;5.03;;
45944;SDS011;31655;48.972;10.686;2022-07-21T12:25:36;6.72;;;6.03;;
45944;SDS011;31655;48.972;10.686;2022-07-21T12:28:05;6.05;;;4.90;;
45944;SDS011;31655;48.972;10.686;2022-07-21T12:30:33;7.78;;;5.63;;
45944;SDS011;31655;48.972;10.686;2022-07-21T12:33:06;6.97;;;5.60;;
45944;SDS011;31655;48.972;10.686;2022-07-21T12:38:37;6.18;;;5.05;;
45944;SDS011;31655;48.972;10.686;2022-07-21T12:41:08;6.38;;;5.43;;
45944;SDS011;31655;48.972;10.686;2022-07-21T12:43:35;6.10;;;4.70;;
45944;SDS011;31655;48.972;10.686;2022-07-21T12:48:37;5.45;;;4.85;;
45944;SDS011;31655;48.972;10.686;2022-07-21T12:51:05;6.70;;;5.03;;
45944;SDS011;31655;48.972;10.686;2022-07-21T12:53:48;5.68;;;5.15;;
45944;SDS011;31655;48.972;10.686;2022-07-21T12:56:16;7.28;;;4.90;;
45944;SDS011;31655;48.972;10.686;2022-07-21T12:58:50;5.90;;;5.13;;
45944;SDS011;31655;48.972;10.686;2022-07-21T13:01:19;4.68;;;4.18;;
45944;SDS011;31655;48.972;10.686;2022-07-21T13:03:46;4.57;;;4.18;;
45944;SDS011;31655;48.972;10.686;2022-07-21T13:06:12;5.85;;;5.25;;
45944;SDS011;31655;48.972;10.686;2022-07-21T13:08:39;5.57;;;4.78;;
45944;SDS011;31655;48.972;10.686;2022-07-21T13:11:06;5.43;;;4.93;;
45944;SDS011;31655;48.972;10.686;2022-07-21T13:13:35;5.70;;;5.18;;
45944;SDS011;31655;48.972;10.686;2022-07-21T13:16:01;7.78;;;6.22;;
45944;SDS011;31655;48.972;10.686;2022-07-21T13:18:27;5.65;;;4.72;;
45944;SDS011;31655;48.972;10.686;2022-07-21T13:20:53;6.03;;;4.75;;
45944;SDS011;31655;48.972;10.686;2022-07-21T13:23:19;8.02;;;5.28;;
45944;SDS011;31655;48.972;10.686;2022-07-21T13:25:45;5.70;;;4.15;;
45944;SDS011;31655;48.972;10.686;2022-07-21T13:28:13;6.88;;;4.60;;
45944;SDS011;31655;48.972;10.686;2022-07-21T13:30:38;9.20;;;4.78;;
45944;SDS011;31655;48.972;10.686;2022-07-21T13:33:04;8.15;;;5.05;;
45944;SDS011;31655;48.972;10.686;2022-07-21T13:35:30;7.68;;;5.80;;
45944;SDS011;31655;48.972;10.686;2022-07-21T13:37:56;5.90;;;5.03;;
45944;SDS011;31655;48.972;10.686;2022-07-21T13:40:23;5.93;;;4.90;;
45944;SDS011;31655;48.972;10.686;2022-07-21T13:42:49;7.10;;;4.90;;
45944;SDS011;31655;48.972;10.686;2022-07-21T13:45:14;5.03;;;4.53;;
45944;SDS011;31655;48.972;10.686;2022-07-21T13:47:41;5.63;;;5.03;;
45944;SDS011;31655;48.972;10.686;2022-07-21T13:50:07;4.80;;;4.32;;
45944;SDS011;31655;48.972;10.686;2022-07-21T13:52:33;7.50;;;4.70;;
45944;SDS011;31655;48.972;10.686;2022-07-21T13:54:59;6.90;;;4.75;;
45944;SDS011;31655;48.972;10.686;2022-07-21T13:57:26;5.57;;;4.82;;
45944;SDS011;31655;48.972;10.686;2022-07-21T13:59:52;4.95;;;4.35;;
45944;SDS011;31655;48.972;10.686;2022-07-21T14:02:17;5.55;;;4.68;;
45944;SDS011;31655;48.972;10.686;2022-07-21T14:04:43;5.15;;;4.65;;
45944;SDS011;31655;48.972;10.686;2022-07-21T14:07:08;4.82;;;4.30;;
45944;SDS011;31655;48.972;10.686;2022-07-21T14:09:38;5.88;;;4.30;;
45944;SDS011;31655;48.972;10.686;2022-07-21T14:12:04;8.50;;;5.32;;
45944;SDS011;31655;48.972;10.686;2022-07-21T14:14:30;10.88;;;4.70;;
45944;SDS011;31655;48.972;10.686;2022-07-21T14:16:56;5.95;;;3.90;;
45944;SDS011;31655;48.972;10.686;2022-07-21T14:19:21;5.30;;;4.80;;
45944;SDS011;31655;48.972;10.686;2022-07-21T14:21:48;6.00;;;4.03;;
45944;SDS011;31655;48.972;10.686;2022-07-21T14:24:13;4.60;;;3.92;;
45944;SDS011;31655;48.972;10.686;2022-07-21T14:26:58;4.70;;;4.10;;
45944;SDS011;31655;48.972;10.686;2022-07-21T14:29:24;5.38;;;3.97;;
45944;SDS011;31655;48.972;10.686;2022-07-21T14:31:49;4.47;;;4.07;;
45944;SDS011;31655;48.972;10.686;2022-07-21T14:34:15;5.18;;;4.00;;
45944;SDS011;31655;48.972;10.686;2022-07-21T14:36:41;7.07;;;4.43;;
45944;SDS011;31655;48.972;10.686;2022-07-21T14:39:07;5.13;;;4.13;;
45944;SDS011;31655;48.972;10.686;2022-07-21T14:41:33;7.20;;;4.70;;
45944;SDS011;31655;48.972;10.686;2022-07-21T14:43:59;7.95;;;5.00;;
45944;SDS011;31655;48.972;10.686;2022-07-21T14:46:25;7.60;;;4.65;;
45944;SDS011;31655;48.972;10.686;2022-07-21T14:48:50;4.70;;;4.28;;
45944;SDS011;31655;48.972;10.686;2022-07-21T14:51:16;5.47;;;4.05;;
45944;SDS011;31655;48.972;10.686;2022-07-21T14:53:41;5.40;;;4.78;;
45944;SDS011;31655;48.972;10.686;2022-07-21T14:56:08;5.97;;;4.25;;
45944;SDS011;31655;48.972;10.686;2022-07-21T14:58:34;4.95;;;3.85;;
45944;SDS011;31655;48.972;10.686;2022-07-21T15:00:59;5.65;;;4.63;;